createdAt,value
2019-02-11T00:03:24.723Z,4.33
2019-02-11T00:07:44.637Z,5.23
2019-02-11T00:12:04.408Z,4.93
2019-02-11T00:16:22.165Z,4.30
2019-02-11T00:20:41.320Z,4.90
2019-02-11T00:25:01.110Z,4.67
2019-02-11T00:29:21.314Z,4.53
2019-02-11T00:33:40.810Z,4.40
2019-02-11T00:38:00.381Z,3.93
2019-02-11T00:42:20.403Z,3.53
2019-02-11T00:46:40.070Z,4.27
2019-02-11T00:50:59.985Z,3.83
2019-02-11T00:55:19.824Z,4.40
2019-02-11T00:59:39.859Z,4.00
2019-02-11T01:03:59.341Z,3.70
2019-02-11T01:08:19.481Z,3.83
2019-02-11T01:12:38.311Z,4.10
2019-02-11T01:16:58.379Z,3.80
2019-02-11T01:21:19.960Z,3.83
2019-02-11T01:25:39.804Z,3.93
2019-02-11T01:29:59.685Z,3.63
2019-02-11T01:34:19.531Z,3.70
2019-02-11T01:38:38.942Z,3.67
2019-02-11T01:42:58.798Z,3.30
2019-02-11T01:47:17.735Z,4.10
2019-02-11T01:51:37.541Z,3.57
2019-02-11T01:55:56.648Z,3.63
2019-02-11T02:00:16.799Z,3.43
2019-02-11T02:04:36.588Z,3.33
2019-02-11T02:08:56.763Z,4.03
2019-02-11T02:13:16.542Z,3.70
2019-02-11T02:17:36.474Z,3.90
2019-02-11T02:21:56.341Z,3.67
2019-02-11T02:26:15.924Z,3.47
2019-02-11T02:30:35.789Z,4.13
2019-02-11T02:34:55.636Z,4.20
2019-02-11T02:39:36.840Z,3.73
2019-02-11T02:43:55.756Z,4.40
2019-02-11T02:48:11.431Z,4.20
2019-02-11T02:52:30.779Z,3.90
2019-02-11T02:56:50.217Z,3.43
2019-02-11T03:01:09.872Z,3.20
2019-02-11T03:05:30.862Z,4.60
2019-02-11T03:09:50.669Z,5.07
2019-02-11T03:14:10.804Z,4.10
2019-02-11T03:18:30.692Z,3.80
2019-02-11T03:22:50.572Z,4.80
2019-02-11T03:27:09.435Z,3.30
2019-02-11T03:31:28.693Z,3.90
2019-02-11T03:35:47.897Z,4.40
2019-02-11T03:40:07.677Z,3.80
2019-02-11T03:44:27.191Z,3.97
2019-02-11T03:48:46.815Z,4.17
2019-02-11T03:53:06.565Z,4.37
2019-02-11T03:57:26.415Z,4.27
2019-02-11T04:01:46.144Z,4.90
2019-02-11T04:06:05.645Z,4.00
2019-02-11T04:10:24.773Z,4.00
2019-02-11T04:14:44.540Z,4.73
2019-02-11T04:19:03.870Z,4.60
2019-02-11T04:23:21.603Z,4.40
2019-02-11T04:27:40.892Z,4.10
2019-02-11T04:31:59.753Z,4.73
2019-02-11T04:36:19.389Z,4.30
2019-02-11T04:40:39.540Z,3.60
2019-02-11T04:44:59.123Z,3.87
2019-02-11T04:49:19.266Z,3.80
2019-02-11T04:53:39.369Z,4.40
2019-02-11T04:57:59.222Z,4.60
2019-02-11T05:06:55.999Z,4.07
2019-02-11T05:11:15.822Z,4.47
2019-02-11T05:19:50.465Z,4.37
2019-02-11T05:24:11.045Z,3.97
2019-02-11T05:28:29.872Z,4.20
2019-02-11T05:32:49.701Z,4.27
2019-02-11T05:37:08.560Z,4.27
2019-02-11T05:41:28.278Z,4.07
2019-02-11T05:45:49.577Z,4.43
2019-02-11T05:50:08.786Z,4.27
2019-02-11T05:54:28.031Z,4.10
2019-02-11T05:58:47.708Z,4.37
2019-02-11T06:03:09.407Z,4.30
2019-02-11T06:07:30.130Z,4.57
2019-02-11T06:11:49.240Z,3.90
2019-02-11T06:16:08.880Z,4.53
2019-02-11T06:20:28.493Z,3.63
2019-02-11T06:24:47.987Z,4.40
2019-02-11T06:29:05.839Z,4.80
2019-02-11T06:33:26.893Z,4.37
2019-02-11T06:37:46.720Z,4.47
2019-02-11T06:42:05.477Z,4.03
2019-02-11T06:46:25.785Z,4.47
2019-02-11T06:50:45.500Z,4.43
2019-02-11T06:55:04.083Z,4.50
2019-02-11T06:59:24.185Z,4.40
2019-02-11T07:03:44.426Z,5.00
2019-02-11T07:08:04.574Z,4.17
2019-02-11T07:12:45.895Z,4.90
2019-02-11T07:17:01.173Z,4.43
2019-02-11T07:21:20.795Z,4.43
2019-02-11T07:25:38.430Z,5.13
2019-02-11T07:29:58.487Z,5.80
2019-02-11T07:34:17.388Z,5.50
2019-02-11T07:38:38.105Z,5.40
2019-02-11T07:47:36.011Z,5.33
2019-02-11T07:51:53.791Z,5.30
2019-02-11T07:56:13.839Z,5.10
2019-02-11T08:00:33.467Z,5.37
2019-02-11T08:04:53.182Z,5.50
2019-02-11T08:09:14.026Z,5.17
2019-02-11T08:13:33.440Z,5.27
2019-02-11T08:17:52.141Z,5.50
2019-02-11T08:22:11.342Z,5.00
2019-02-11T08:26:31.071Z,5.60
2019-02-11T08:30:49.930Z,5.47
2019-02-11T08:35:08.575Z,5.40
2019-02-11T08:39:28.621Z,5.53
2019-02-11T08:43:47.612Z,5.33
2019-02-11T08:48:07.304Z,6.37
2019-02-11T08:52:26.277Z,6.20
2019-02-11T08:56:44.140Z,5.77
2019-02-11T09:01:03.343Z,5.60
2019-02-11T09:05:22.893Z,5.77
2019-02-11T09:09:42.560Z,5.93
2019-02-11T09:14:01.801Z,5.70
2019-02-11T09:18:20.897Z,5.30
2019-02-11T09:22:40.448Z,5.00
2019-02-11T09:26:59.336Z,5.20
2019-02-11T09:31:18.395Z,4.80
2019-02-11T09:35:38.000Z,5.40
2019-02-11T09:39:57.550Z,5.20
2019-02-11T09:44:16.948Z,4.90
2019-02-11T09:48:36.074Z,5.13
2019-02-11T09:52:56.208Z,32.63
2019-02-11T09:57:15.959Z,21.13
2019-02-11T10:01:35.997Z,17.80
2019-02-11T10:05:55.205Z,9.67
2019-02-11T10:10:14.749Z,5.30
2019-02-11T10:14:34.099Z,6.07
2019-02-11T10:18:53.030Z,5.80
2019-02-11T10:23:12.881Z,5.77
2019-02-11T10:27:31.659Z,6.07
2019-02-11T10:31:51.660Z,5.50
2019-02-11T10:36:11.557Z,5.73
2019-02-11T10:40:31.027Z,5.37
2019-02-11T10:44:50.988Z,5.20
2019-02-11T10:49:10.736Z,5.63
2019-02-11T10:53:29.248Z,4.83
2019-02-11T10:57:49.697Z,5.33
2019-02-11T11:02:09.022Z,5.03
2019-02-11T11:06:28.098Z,4.70
2019-02-11T11:10:47.237Z,5.23
2019-02-11T11:15:05.878Z,5.30
2019-02-11T11:19:24.738Z,5.10
2019-02-11T11:23:43.384Z,4.33
2019-02-11T11:28:02.559Z,5.30
2019-02-11T11:32:22.509Z,4.70
2019-02-11T11:36:41.644Z,4.57
2019-02-11T11:41:00.332Z,5.00
2019-02-11T11:45:19.295Z,4.63
2019-02-11T11:49:38.087Z,5.03
2019-02-11T11:53:56.753Z,4.73
2019-02-11T11:58:15.674Z,5.40
2019-02-11T12:02:34.436Z,4.80
2019-02-11T12:06:53.537Z,4.40
2019-02-11T12:11:12.242Z,5.40
2019-02-11T12:15:31.342Z,4.93
2019-02-11T12:19:51.098Z,4.73
2019-02-11T12:24:09.995Z,4.00
2019-02-11T12:28:28.905Z,4.27
2019-02-11T12:32:47.977Z,5.17
2019-02-11T12:37:09.495Z,4.93
2019-02-11T12:41:27.756Z,4.50
2019-02-11T12:45:46.320Z,4.50
2019-02-11T12:50:05.984Z,4.60
2019-02-11T12:54:25.061Z,4.10
2019-02-11T12:58:43.715Z,4.67
2019-02-11T13:03:02.740Z,4.33
2019-02-11T13:07:22.421Z,4.47
2019-02-11T13:11:41.264Z,4.10
2019-02-11T13:16:02.825Z,5.10
2019-02-11T13:20:21.073Z,4.80
2019-02-11T13:24:39.996Z,5.23
2019-02-11T13:28:58.586Z,4.70
2019-02-11T13:33:17.401Z,5.40
2019-02-11T13:37:36.234Z,5.60
2019-02-11T13:41:55.181Z,4.10
2019-02-11T13:46:14.270Z,5.10
2019-02-11T13:50:33.188Z,5.40
2019-02-11T13:54:52.767Z,4.80
2019-02-11T13:59:11.726Z,4.63
2019-02-11T14:03:30.871Z,6.00
2019-02-11T14:07:50.658Z,4.93
2019-02-11T14:12:09.535Z,5.70
2019-02-11T14:16:28.091Z,5.73
2019-02-11T14:20:49.979Z,4.23
2019-02-11T14:25:08.421Z,5.17
2019-02-11T14:29:27.290Z,4.47
2019-02-11T14:33:46.341Z,5.13
2019-02-11T14:38:05.303Z,5.60
2019-02-11T14:42:24.028Z,5.40
2019-02-11T14:46:43.162Z,5.53
2019-02-11T14:51:02.211Z,5.17
2019-02-11T14:55:21.238Z,6.13
2019-02-11T14:59:40.976Z,5.10
2019-02-11T15:03:59.739Z,5.53
2019-02-11T15:08:19.079Z,5.87
2019-02-11T15:12:37.925Z,6.37
2019-02-11T15:16:56.988Z,6.67
2019-02-11T15:21:15.624Z,6.40
2019-02-11T15:25:34.276Z,5.80
2019-02-11T15:29:53.450Z,6.40
2019-02-11T15:34:12.294Z,5.70
2019-02-11T15:38:31.303Z,6.30
2019-02-11T15:42:50.413Z,6.73
2019-02-11T15:47:09.060Z,5.80
2019-02-11T15:51:28.099Z,6.50
2019-02-11T15:55:46.959Z,6.47
2019-02-11T16:00:06.089Z,7.80
2019-02-11T16:04:24.875Z,6.47
2019-02-11T16:08:43.534Z,6.03
2019-02-11T16:13:02.768Z,7.00
2019-02-11T16:17:21.750Z,6.00
2019-02-11T16:21:40.441Z,6.10
2019-02-11T16:25:59.458Z,6.00
2019-02-11T16:30:17.879Z,5.57
2019-02-11T16:34:36.839Z,6.17
2019-02-11T16:38:55.517Z,6.63
2019-02-11T16:43:17.470Z,6.37
2019-02-11T16:47:38.080Z,5.00
2019-02-11T16:51:56.888Z,5.10
2019-02-11T16:56:16.142Z,5.87
2019-02-11T17:00:35.382Z,7.20
2019-02-11T17:04:53.982Z,5.63
2019-02-11T17:09:13.083Z,5.57
2019-02-11T17:13:32.071Z,6.50
2019-02-11T17:17:50.899Z,6.03
2019-02-11T17:22:11.855Z,5.87
2019-02-11T17:26:30.704Z,5.80
2019-02-11T17:30:50.333Z,5.80
2019-02-11T17:35:09.205Z,6.23
2019-02-11T17:39:27.736Z,5.80
2019-02-11T17:43:46.490Z,5.80
2019-02-11T17:48:05.526Z,6.10
2019-02-11T17:52:24.538Z,7.07
2019-02-11T17:56:43.150Z,5.70
2019-02-11T18:01:02.645Z,6.00
2019-02-11T18:05:21.653Z,6.17
2019-02-11T18:09:40.604Z,5.67
2019-02-11T18:14:01.195Z,5.40
2019-02-11T18:18:20.339Z,4.97
2019-02-11T18:22:39.477Z,6.27
2019-02-11T18:26:58.455Z,5.20
2019-02-11T18:31:17.458Z,5.97
2019-02-11T18:35:36.365Z,5.33
2019-02-11T18:39:56.143Z,6.23
2019-02-11T18:44:14.887Z,5.97
2019-02-11T18:48:33.646Z,6.27
2019-02-11T18:52:52.114Z,5.60
2019-02-11T18:57:10.797Z,5.53
2019-02-11T19:01:29.502Z,4.77
2019-02-11T19:05:49.205Z,4.97
2019-02-11T19:10:09.068Z,4.83
2019-02-11T19:14:27.994Z,4.57
2019-02-11T19:18:47.505Z,5.00
2019-02-11T19:23:06.138Z,5.10
2019-02-11T19:27:24.907Z,5.90
2019-02-11T19:31:43.757Z,4.40
2019-02-11T19:36:02.769Z,4.67
2019-02-11T19:40:21.481Z,5.10
2019-02-11T19:44:40.129Z,5.30
2019-02-11T19:49:18.738Z,4.87
2019-02-11T19:53:37.863Z,4.53
2019-02-11T19:57:56.797Z,5.23
2019-02-11T20:02:15.437Z,5.10
2019-02-11T20:06:34.079Z,5.27
2019-02-11T20:10:53.554Z,5.33
2019-02-11T20:15:12.377Z,4.97
2019-02-11T20:19:31.335Z,4.87
2019-02-11T20:23:50.191Z,5.17
2019-02-11T20:28:09.136Z,4.80
2019-02-11T20:32:28.146Z,4.70
2019-02-11T20:36:46.831Z,5.40
2019-02-11T20:41:05.806Z,5.23
2019-02-11T20:45:24.691Z,4.70
2019-02-11T20:49:43.837Z,4.30
2019-02-11T20:54:02.887Z,4.93
2019-02-11T20:58:22.359Z,5.00
2019-02-11T21:02:41.386Z,4.43
2019-02-11T21:07:00.041Z,5.20
2019-02-11T21:11:18.957Z,4.90
2019-02-11T21:15:37.714Z,4.63
2019-02-11T21:19:56.678Z,4.60
2019-02-11T21:24:15.691Z,4.70
2019-02-11T21:28:34.544Z,5.33
2019-02-11T21:32:53.562Z,4.33
2019-02-11T21:37:13.397Z,4.40
2019-02-11T21:41:32.187Z,4.60
2019-02-11T21:45:51.227Z,4.40
2019-02-11T21:50:10.192Z,4.77
2019-02-11T21:54:28.929Z,4.27
2019-02-11T21:58:47.983Z,4.47
2019-02-11T22:03:07.137Z,3.93
2019-02-11T22:07:25.895Z,4.23
2019-02-11T22:11:44.480Z,4.43
2019-02-11T22:16:03.580Z,3.93
2019-02-11T22:20:23.282Z,3.70
2019-02-11T22:24:42.901Z,4.43
2019-02-11T22:29:01.759Z,3.73
2019-02-11T22:33:20.497Z,4.00
2019-02-11T22:37:40.254Z,4.20
2019-02-11T22:41:59.370Z,3.37
2019-02-11T22:46:18.146Z,4.17
2019-02-11T22:50:43.000Z,4.23
2019-02-11T22:54:57.670Z,3.70
2019-02-11T22:59:16.424Z,4.17
2019-02-11T23:03:35.030Z,3.40
2019-02-11T23:07:53.902Z,4.30
2019-02-11T23:12:12.509Z,3.70
2019-02-11T23:16:31.462Z,3.60
2019-02-11T23:20:51.978Z,3.63
2019-02-11T23:25:11.242Z,3.20
2019-02-11T23:29:29.762Z,3.70
2019-02-11T23:33:48.673Z,3.77
2019-02-11T23:38:08.060Z,3.80
2019-02-11T23:42:26.779Z,3.37
2019-02-11T23:46:45.507Z,3.63
2019-02-11T23:51:04.591Z,3.90
2019-02-11T23:55:23.642Z,3.80
2019-02-11T23:59:42.610Z,3.73
